createdAt,value
2023-04-12T00:01:08.777Z,3.93
2023-04-12T00:03:35.897Z,4.60
2023-04-12T00:06:03.448Z,3.87
2023-04-12T00:08:33.137Z,3.90
2023-04-12T00:11:02.153Z,3.30
2023-04-12T00:13:30.661Z,3.70
2023-04-12T00:15:57.552Z,3.50
2023-04-12T00:18:25.365Z,3.37
2023-04-12T00:20:53.236Z,3.80
2023-04-12T00:23:20.649Z,3.63
2023-04-12T00:25:48.024Z,4.03
2023-04-12T00:28:15.966Z,3.00
2023-04-12T00:30:43.211Z,3.30
2023-04-12T00:33:10.141Z,3.83
2023-04-12T00:35:37.142Z,3.70
2023-04-12T00:38:06.296Z,3.40
2023-04-12T00:40:33.348Z,4.10
2023-04-12T00:43:01.012Z,3.47
2023-04-12T00:45:28.030Z,3.20
2023-04-12T00:47:56.522Z,3.57
2023-04-12T00:50:24.071Z,3.30
2023-04-12T00:52:52.839Z,3.40
2023-04-12T00:55:19.938Z,3.17
2023-04-12T00:57:46.928Z,3.27
2023-04-12T01:00:14.250Z,2.80
2023-04-12T01:02:47.862Z,2.67
2023-04-12T01:05:22.528Z,3.10
2023-04-12T01:08:14.995Z,3.10
2023-04-12T01:11:06.322Z,2.60
2023-04-12T01:13:47.408Z,3.53
2023-04-12T01:16:40.710Z,2.60
2023-04-12T01:19:35.995Z,2.60
2023-04-12T01:22:38.648Z,2.73
2023-04-12T01:25:44.707Z,2.70
2023-04-12T01:28:23.084Z,2.53
2023-04-12T01:30:54.134Z,2.57
2023-04-12T01:33:22.250Z,2.47
2023-04-12T01:35:51.724Z,2.20
2023-04-12T01:38:19.228Z,3.20
2023-04-12T01:40:46.206Z,2.27
2023-04-12T01:43:15.847Z,2.63
2023-04-12T01:45:42.841Z,2.60
2023-04-12T01:48:12.008Z,2.60
2023-04-12T01:51:00.730Z,2.37
2023-04-12T01:53:48.104Z,2.63
2023-04-12T01:56:18.290Z,2.30
2023-04-12T01:58:47.818Z,2.90
2023-04-12T02:01:16.438Z,2.33
2023-04-12T02:03:45.118Z,3.30
2023-04-12T02:06:12.633Z,2.40
2023-04-12T02:08:39.590Z,3.20
2023-04-12T02:11:11.453Z,2.80
2023-04-12T02:13:38.476Z,2.30
2023-04-12T02:16:08.005Z,2.30
2023-04-12T02:18:37.545Z,3.20
2023-04-12T02:21:04.652Z,2.30
2023-04-12T02:23:31.681Z,3.53
2023-04-12T02:25:58.628Z,2.90
2023-04-12T02:28:25.539Z,2.83
2023-04-12T02:30:53.949Z,3.00
2023-04-12T02:33:28.263Z,2.90
2023-04-12T02:35:57.288Z,3.30
2023-04-12T02:38:24.393Z,3.07
2023-04-12T02:40:51.485Z,3.43
2023-04-12T02:43:18.364Z,3.43
2023-04-12T02:45:46.925Z,3.43
2023-04-12T02:48:13.846Z,3.57
2023-04-12T02:50:40.998Z,3.60
2023-04-12T02:53:07.882Z,3.97
2023-04-12T02:55:36.751Z,3.77
2023-04-12T02:58:03.657Z,3.97
2023-04-12T03:00:30.594Z,3.90
2023-04-12T03:02:58.978Z,4.10
2023-04-12T03:05:27.344Z,3.80
2023-04-12T03:07:54.496Z,3.80
2023-04-12T03:10:21.501Z,4.60
2023-04-12T03:12:48.342Z,3.93
2023-04-12T03:15:15.251Z,4.27
2023-04-12T03:17:42.939Z,4.27
2023-04-12T03:20:10.205Z,4.70
2023-04-12T03:22:38.239Z,4.60
2023-04-12T03:25:05.976Z,4.73
2023-04-12T03:27:33.163Z,4.13
2023-04-12T03:30:00.386Z,4.90
2023-04-12T03:32:27.397Z,4.40
2023-04-12T03:34:55.373Z,4.33
2023-04-12T03:37:22.376Z,4.17
2023-04-12T03:39:49.343Z,4.60
2023-04-12T03:42:31.590Z,4.10
2023-04-12T03:44:59.710Z,4.77
2023-04-12T03:47:26.703Z,4.07
2023-04-12T03:50:10.165Z,4.20
2023-04-12T03:52:38.590Z,4.27
2023-04-12T03:55:07.494Z,3.90
2023-04-12T03:57:35.293Z,4.70
2023-04-12T04:00:02.698Z,4.60
2023-04-12T04:02:30.105Z,4.40
2023-04-12T04:04:57.366Z,4.10
2023-04-12T04:07:24.308Z,4.33
2023-04-12T04:09:51.238Z,4.20
2023-04-12T04:12:18.144Z,4.00
2023-04-12T04:14:45.372Z,5.00
2023-04-12T04:17:12.360Z,4.37
2023-04-12T04:19:39.541Z,4.93
2023-04-12T04:22:06.997Z,4.90
2023-04-12T04:24:34.216Z,4.77
2023-04-12T04:27:01.149Z,4.73
2023-04-12T04:29:29.163Z,4.37
2023-04-12T04:31:57.443Z,5.00
2023-04-12T04:34:25.478Z,5.27
2023-04-12T04:36:52.767Z,5.43
2023-04-12T04:39:20.011Z,5.43
2023-04-12T04:41:47.051Z,5.30
2023-04-12T04:44:14.384Z,8.30
2023-04-12T04:46:41.448Z,6.00
2023-04-12T04:49:08.377Z,5.90
2023-04-12T04:51:36.629Z,6.30
2023-04-12T04:54:03.653Z,6.40
2023-04-12T04:56:30.949Z,6.57
2023-04-12T04:58:58.068Z,6.10
2023-04-12T05:01:28.634Z,11.90
2023-04-12T05:03:56.345Z,12.43
2023-04-12T05:06:24.089Z,7.23
2023-04-12T05:08:52.508Z,8.10
2023-04-12T05:11:20.386Z,9.40
2023-04-12T05:13:47.700Z,6.57
2023-04-12T05:16:14.752Z,6.80
2023-04-12T05:18:41.663Z,5.97
2023-04-12T05:21:08.649Z,5.77
2023-04-12T05:23:44.672Z,6.33
2023-04-12T05:26:11.709Z,5.33
2023-04-12T05:28:38.689Z,5.40
2023-04-12T05:31:06.224Z,5.00
2023-04-12T05:33:34.622Z,4.43
2023-04-12T05:36:01.666Z,3.57
2023-04-12T05:38:28.871Z,3.23
2023-04-12T05:40:55.820Z,3.43
2023-04-12T05:43:22.903Z,3.20
2023-04-12T05:45:51.347Z,3.50
2023-04-12T05:48:19.199Z,2.80
2023-04-12T05:50:53.661Z,3.03
2023-04-12T05:53:22.724Z,3.50
2023-04-12T05:55:49.680Z,3.13
2023-04-12T05:58:16.738Z,2.80
2023-04-12T06:00:45.197Z,2.70
2023-04-12T06:03:12.816Z,2.47
2023-04-12T06:05:40.771Z,2.90
2023-04-12T06:08:17.325Z,2.50
2023-04-12T06:10:45.478Z,3.37
2023-04-12T06:13:12.475Z,32.87
2023-04-12T06:15:39.489Z,4.40
2023-04-12T06:18:09.572Z,3.17
2023-04-12T06:20:40.790Z,2.37
2023-04-12T06:23:07.993Z,2.50
2023-04-12T06:25:34.974Z,2.90
2023-04-12T06:28:01.896Z,3.10
2023-04-12T06:30:28.837Z,2.93
2023-04-12T06:32:56.569Z,3.40
2023-04-12T06:35:23.492Z,2.73
2023-04-12T06:37:50.423Z,3.17
2023-04-12T06:40:26.640Z,3.00
2023-04-12T06:43:00.346Z,3.07
2023-04-12T06:45:31.146Z,2.67
2023-04-12T06:47:58.507Z,3.57
2023-04-12T06:50:26.840Z,3.80
2023-04-12T06:52:53.864Z,10.57
2023-04-12T06:55:21.468Z,3.90
2023-04-12T06:57:51.899Z,3.37
2023-04-12T07:00:19.016Z,4.67
2023-04-12T07:02:46.690Z,2.90
2023-04-12T07:05:14.671Z,3.20
2023-04-12T07:07:41.633Z,2.90
2023-04-12T07:10:08.970Z,2.60
2023-04-12T07:12:36.445Z,3.27
2023-04-12T07:15:03.801Z,3.00
2023-04-12T07:17:30.743Z,2.70
2023-04-12T07:19:57.682Z,2.80
2023-04-12T07:22:24.633Z,2.83
2023-04-12T07:24:52.214Z,3.10
2023-04-12T07:27:19.540Z,4.27
2023-04-12T07:29:47.354Z,12.43
2023-04-12T07:32:14.452Z,7.77
2023-04-12T07:34:41.846Z,3.13
2023-04-12T07:37:08.882Z,2.70
2023-04-12T07:39:37.491Z,3.10
2023-04-12T07:42:04.609Z,2.87
2023-04-12T07:44:31.877Z,2.80
2023-04-12T07:46:58.776Z,2.97
2023-04-12T07:49:26.084Z,2.80
2023-04-12T07:51:53.017Z,3.00
2023-04-12T07:54:21.179Z,2.80
2023-04-12T07:57:04.153Z,2.60
2023-04-12T07:59:31.926Z,4.83
2023-04-12T08:01:58.908Z,8.27
2023-04-12T08:04:28.583Z,3.10
2023-04-12T08:06:56.100Z,3.13
2023-04-12T08:09:24.490Z,2.93
2023-04-12T08:11:51.584Z,3.07
2023-04-12T08:14:18.498Z,3.63
2023-04-12T08:16:45.502Z,3.40
2023-04-12T08:19:12.457Z,2.90
2023-04-12T08:21:39.517Z,2.60
2023-04-12T08:24:06.957Z,2.40
2023-04-12T08:26:33.897Z,2.60
2023-04-12T08:29:01.005Z,2.50
2023-04-12T08:31:28.929Z,2.20
2023-04-12T08:33:56.716Z,2.77
2023-04-12T08:36:23.912Z,2.73
2023-04-12T08:38:52.618Z,2.50
2023-04-12T08:41:20.277Z,2.30
2023-04-12T08:43:47.834Z,2.73
2023-04-12T08:46:16.198Z,2.17
2023-04-12T08:48:49.184Z,2.87
2023-04-12T08:51:19.389Z,2.27
2023-04-12T08:53:46.402Z,2.50
2023-04-12T08:56:17.331Z,2.20
2023-04-12T08:58:50.803Z,17.03
2023-04-12T09:01:20.853Z,23.57
2023-04-12T09:03:48.446Z,3.60
2023-04-12T09:06:15.748Z,10.87
2023-04-12T09:08:56.646Z,4.60
2023-04-12T09:11:28.804Z,6.40
2023-04-12T09:13:58.742Z,2.23
2023-04-12T09:16:42.715Z,2.50
2023-04-12T09:19:10.097Z,2.00
2023-04-12T09:21:37.878Z,2.33
2023-04-12T09:24:12.409Z,2.23
2023-04-12T09:26:41.236Z,15.07
2023-04-12T09:29:25.089Z,8.93
2023-04-12T09:32:10.611Z,2.67
2023-04-12T09:34:38.774Z,2.50
2023-04-12T09:37:16.777Z,2.27
2023-04-12T09:39:44.193Z,2.20
2023-04-12T09:42:30.000Z,1.83
2023-04-12T09:45:02.867Z,2.23
2023-04-12T09:47:40.872Z,1.63
2023-04-12T09:50:09.841Z,1.80
2023-04-12T09:52:38.945Z,1.80
2023-04-12T09:55:11.172Z,1.93
2023-04-12T09:57:43.753Z,1.73
2023-04-12T10:00:20.240Z,2.20
2023-04-12T10:02:53.566Z,2.03
2023-04-12T10:05:25.169Z,2.60
2023-04-12T10:07:53.292Z,1.70
2023-04-12T10:10:21.228Z,1.77
2023-04-12T10:12:49.708Z,2.00
2023-04-12T10:15:18.301Z,1.60
2023-04-12T10:17:51.890Z,1.80
2023-04-12T10:20:21.108Z,1.80
2023-04-12T10:22:51.377Z,1.33
2023-04-12T10:25:21.870Z,1.60
2023-04-12T10:27:49.671Z,2.40
2023-04-12T10:30:27.345Z,1.80
2023-04-12T10:33:03.530Z,1.90
2023-04-12T10:35:48.884Z,1.67
2023-04-12T10:38:16.686Z,1.80
2023-04-12T10:41:17.207Z,1.80
2023-04-12T10:43:49.567Z,1.87
2023-04-12T10:46:37.544Z,1.53
2023-04-12T10:49:14.780Z,10.27
2023-04-12T10:52:02.693Z,13.13
2023-04-12T10:54:30.142Z,15.87
2023-04-12T10:56:57.630Z,7.33
2023-04-12T10:59:31.397Z,1.70
2023-04-12T11:02:11.558Z,1.87
2023-04-12T11:04:39.170Z,2.33
2023-04-12T11:07:11.654Z,1.73
2023-04-12T11:09:42.591Z,1.70
2023-04-12T11:12:16.700Z,1.60
2023-04-12T11:14:52.951Z,1.60
2023-04-12T11:17:22.753Z,1.80
2023-04-12T11:19:56.878Z,2.20
2023-04-12T11:22:32.629Z,2.17
2023-04-12T11:25:02.265Z,2.20
2023-04-12T11:27:31.788Z,1.70
2023-04-12T11:30:00.791Z,6.30
2023-04-12T11:32:30.196Z,2.20
2023-04-12T11:34:58.765Z,1.57
2023-04-12T11:37:27.303Z,1.60
2023-04-12T11:39:57.515Z,1.80
2023-04-12T11:42:26.477Z,1.40
2023-04-12T11:44:59.233Z,1.67
2023-04-12T11:47:28.898Z,1.70
2023-04-12T11:49:58.880Z,1.60
2023-04-12T11:52:33.743Z,2.00
2023-04-12T11:55:08.695Z,1.80
2023-04-12T11:57:35.994Z,1.23
2023-04-12T12:00:06.547Z,1.40
2023-04-12T12:02:41.045Z,1.70
2023-04-12T12:05:13.468Z,1.80
2023-04-12T12:07:40.975Z,1.63
2023-04-12T12:10:09.226Z,1.90
2023-04-12T12:12:36.250Z,1.80
2023-04-12T12:15:03.165Z,2.10
2023-04-12T12:17:30.156Z,1.87
2023-04-12T12:20:04.527Z,1.70
2023-04-12T12:22:31.802Z,1.87
2023-04-12T12:25:00.687Z,1.87
2023-04-12T12:27:31.030Z,2.10
2023-04-12T12:30:01.781Z,1.53
2023-04-12T12:32:35.602Z,2.00
2023-04-12T12:35:03.797Z,2.00
2023-04-12T12:37:31.293Z,1.97
2023-04-12T12:40:16.691Z,1.93
2023-04-12T12:42:55.463Z,1.70
2023-04-12T12:45:26.297Z,2.10
2023-04-12T12:48:04.062Z,2.10
2023-04-12T12:50:36.209Z,1.80
2023-04-12T12:53:06.420Z,1.80
2023-04-12T12:55:33.309Z,1.97
2023-04-12T13:00:30.169Z,2.33
2023-04-12T13:02:58.625Z,1.87
2023-04-12T13:05:25.768Z,1.83
2023-04-12T13:07:52.673Z,2.43
2023-04-12T13:10:19.615Z,2.27
2023-04-12T13:12:46.564Z,2.20
2023-04-12T13:15:22.010Z,1.87
2023-04-12T13:17:53.063Z,2.70
2023-04-12T13:20:20.500Z,1.97
2023-04-12T13:22:47.393Z,2.23
2023-04-12T13:25:14.411Z,2.30
2023-04-12T13:27:41.301Z,2.83
2023-04-12T13:30:08.857Z,2.00
2023-04-12T13:32:36.063Z,2.00
2023-04-12T13:35:04.552Z,2.10
2023-04-12T13:37:31.615Z,2.20
2023-04-12T13:39:58.572Z,1.87
2023-04-12T13:42:25.846Z,2.20
2023-04-12T13:44:52.958Z,2.17
2023-04-12T13:47:20.069Z,1.80
2023-04-12T13:49:47.063Z,1.80
2023-04-12T13:52:14.362Z,2.10
2023-04-12T13:54:43.421Z,2.07
2023-04-12T13:57:10.533Z,2.87
2023-04-12T13:59:37.715Z,1.90
2023-04-12T14:02:04.752Z,1.87
2023-04-12T14:04:32.212Z,2.20
2023-04-12T14:06:59.912Z,1.70
2023-04-12T14:09:32.288Z,2.03
2023-04-12T14:12:01.690Z,2.20
2023-04-12T14:14:28.726Z,1.60
2023-04-12T14:17:01.856Z,2.10
2023-04-12T14:19:29.609Z,2.00
2023-04-12T14:21:56.893Z,1.80
2023-04-12T14:24:23.851Z,1.73
2023-04-12T14:26:50.852Z,2.40
2023-04-12T14:29:17.813Z,2.50
2023-04-12T14:31:44.979Z,1.77
2023-04-12T14:34:13.395Z,2.10
2023-04-12T14:36:40.802Z,2.50
2023-04-12T14:39:10.774Z,2.37
2023-04-12T14:41:38.828Z,2.20
2023-04-12T14:44:06.113Z,2.17
2023-04-12T14:46:33.053Z,1.83
2023-04-12T14:49:01.296Z,2.07
2023-04-12T14:51:29.739Z,1.70
2023-04-12T14:53:57.522Z,2.10
2023-04-12T14:56:28.540Z,2.20
2023-04-12T14:58:57.480Z,1.77
2023-04-12T15:01:25.639Z,1.97
2023-04-12T15:03:53.717Z,2.20
2023-04-12T15:06:27.320Z,2.20
2023-04-12T15:08:55.131Z,2.50
2023-04-12T15:11:26.408Z,1.90
2023-04-12T15:13:53.865Z,1.57
2023-04-12T15:16:20.973Z,2.40
2023-04-12T15:18:50.547Z,2.40
2023-04-12T15:21:17.559Z,1.83
2023-04-12T15:23:44.932Z,2.10
2023-04-12T15:26:13.977Z,1.70
2023-04-12T15:28:41.028Z,2.20
2023-04-12T15:31:09.196Z,2.03
2023-04-12T15:33:37.334Z,2.33
2023-04-12T15:36:05.511Z,2.13
2023-04-12T15:38:34.748Z,2.10
2023-04-12T15:41:02.136Z,2.00
2023-04-12T15:43:29.342Z,2.90
2023-04-12T15:45:57.305Z,3.10
2023-04-12T15:48:25.768Z,2.00
2023-04-12T15:50:55.817Z,2.30
2023-04-12T15:53:27.505Z,2.80
2023-04-12T15:55:57.734Z,2.90
2023-04-12T15:58:26.932Z,2.23
2023-04-12T16:00:54.497Z,2.07
2023-04-12T16:03:26.438Z,2.40
2023-04-12T16:05:54.424Z,2.20
2023-04-12T16:08:22.182Z,2.13
2023-04-12T16:10:50.234Z,1.90
2023-04-12T16:13:17.322Z,1.97
2023-04-12T16:15:44.569Z,2.23
2023-04-12T16:18:11.947Z,2.10
2023-04-12T16:20:40.928Z,3.03
2023-04-12T16:23:08.247Z,2.60
2023-04-12T16:25:35.905Z,1.80
2023-04-12T16:28:03.408Z,2.37
2023-04-12T16:30:32.470Z,2.30
2023-04-12T16:32:59.812Z,2.20
2023-04-12T16:35:27.152Z,2.67
2023-04-12T16:37:54.910Z,2.57
2023-04-12T16:40:22.291Z,2.87
2023-04-12T16:42:49.366Z,2.10
2023-04-12T16:45:16.336Z,3.07
2023-04-12T16:47:47.015Z,2.20
2023-04-12T16:50:14.204Z,2.50
2023-04-12T16:52:41.841Z,2.60
2023-04-12T16:55:13.095Z,2.57
2023-04-12T16:57:42.010Z,2.60
2023-04-12T17:00:29.066Z,3.00
2023-04-12T17:02:56.536Z,3.10
2023-04-12T17:05:24.671Z,3.00
2023-04-12T17:07:54.257Z,2.80
2023-04-12T17:10:24.273Z,3.00
2023-04-12T17:12:55.293Z,2.73
2023-04-12T17:15:22.933Z,2.77
2023-04-12T17:17:52.915Z,3.73
2023-04-12T17:20:23.652Z,2.70
2023-04-12T17:22:51.181Z,30.90
2023-04-12T17:25:21.070Z,7.73
2023-04-12T17:27:49.293Z,3.87
2023-04-12T17:30:17.693Z,3.57
2023-04-12T17:32:49.321Z,4.03
2023-04-12T17:35:17.488Z,3.93
2023-04-12T17:37:44.971Z,3.67
2023-04-12T17:40:12.409Z,3.67
2023-04-12T17:42:41.791Z,3.80
2023-04-12T17:45:12.518Z,12.07
2023-04-12T17:47:43.885Z,27.53
2023-04-12T17:50:12.081Z,11.30
2023-04-12T17:52:39.443Z,5.13
2023-04-12T17:55:09.343Z,3.87
2023-04-12T17:57:36.485Z,4.30
2023-04-12T18:00:14.184Z,3.87
2023-04-12T18:02:43.700Z,4.10
2023-04-12T18:05:11.281Z,4.33
2023-04-12T18:07:39.823Z,3.87
2023-04-12T18:10:11.166Z,4.67
2023-04-12T18:12:38.661Z,4.13
2023-04-12T18:15:08.348Z,4.30
2023-04-12T18:17:35.451Z,4.30
2023-04-12T18:20:03.145Z,4.07
2023-04-12T18:22:30.368Z,4.57
2023-04-12T18:24:57.350Z,4.20
2023-04-12T18:27:24.208Z,3.67
2023-04-12T18:29:51.137Z,4.13
2023-04-12T18:32:18.212Z,4.90
2023-04-12T18:34:45.110Z,5.30
2023-04-12T18:37:12.552Z,5.70
2023-04-12T18:39:39.600Z,7.30
2023-04-12T18:42:06.576Z,7.53
2023-04-12T18:44:34.318Z,8.70
2023-04-12T18:47:01.359Z,11.57
2023-04-12T18:49:28.443Z,10.77
2023-04-12T18:51:58.647Z,12.73
2023-04-12T18:54:27.641Z,13.80
2023-04-12T18:56:54.973Z,14.10
2023-04-12T18:59:22.348Z,13.80
2023-04-12T19:01:49.420Z,27.70
2023-04-12T19:04:16.714Z,46.60
2023-04-12T19:06:45.261Z,38.40
2023-04-12T19:09:12.414Z,26.30
2023-04-12T19:11:39.656Z,35.30
2023-04-12T19:14:07.611Z,28.17
2023-04-12T19:16:35.543Z,16.57
2023-04-12T19:19:02.700Z,13.33
2023-04-12T19:21:29.758Z,15.10
2023-04-12T19:24:00.234Z,37.83
2023-04-12T19:26:28.893Z,27.80
2023-04-12T19:28:58.237Z,19.10
2023-04-12T19:31:25.770Z,16.80
2023-04-12T19:33:54.768Z,15.20
2023-04-12T19:36:24.313Z,12.47
2023-04-12T19:38:51.308Z,13.10
2023-04-12T19:41:19.761Z,12.33
2023-04-12T19:43:47.538Z,11.80
2023-04-12T19:46:15.200Z,11.00
2023-04-12T19:48:42.748Z,11.00
2023-04-12T19:51:09.866Z,9.70
2023-04-12T19:53:37.241Z,45.87
2023-04-12T19:56:04.518Z,44.40
2023-04-12T19:58:32.076Z,11.77
2023-04-12T20:01:02.811Z,10.03
2023-04-12T20:03:30.591Z,10.57
2023-04-12T20:06:03.925Z,10.03
2023-04-12T20:08:31.148Z,12.00
2023-04-12T20:10:58.389Z,11.07
2023-04-12T20:13:25.335Z,10.17
2023-04-12T20:15:52.604Z,12.37
2023-04-12T20:18:19.560Z,10.83
2023-04-12T20:20:48.485Z,10.50
2023-04-12T20:23:16.073Z,9.90
2023-04-12T20:25:42.995Z,9.70
2023-04-12T20:28:10.075Z,8.57
2023-04-12T20:30:37.129Z,7.20
2023-04-12T20:33:04.536Z,9.87
2023-04-12T20:35:31.997Z,9.33
2023-04-12T20:37:59.956Z,8.80
2023-04-12T20:40:29.622Z,8.93
2023-04-12T20:42:57.113Z,8.63
2023-04-12T20:45:24.273Z,9.00
2023-04-12T20:47:51.409Z,9.67
2023-04-12T20:50:22.276Z,9.00
2023-04-12T20:52:51.846Z,8.40
2023-04-12T20:55:19.010Z,8.90
2023-04-12T20:57:46.010Z,7.10
2023-04-12T21:00:23.760Z,7.10
2023-04-12T21:02:50.939Z,6.87
2023-04-12T21:05:18.002Z,7.07
2023-04-12T21:07:46.815Z,6.57
2023-04-12T21:10:14.923Z,6.47
2023-04-12T21:12:44.847Z,7.13
2023-04-12T21:15:12.496Z,7.60
2023-04-12T21:17:40.430Z,7.50
2023-04-12T21:20:14.604Z,8.10
2023-04-12T21:22:43.690Z,7.23
2023-04-12T21:25:16.563Z,7.37
2023-04-12T21:27:47.682Z,7.00
2023-04-12T21:30:15.639Z,7.00
2023-04-12T21:32:43.987Z,7.40
2023-04-12T21:35:11.605Z,7.23
2023-04-12T21:37:39.477Z,7.23
2023-04-12T21:40:09.624Z,6.70
2023-04-12T21:42:37.336Z,6.23
2023-04-12T21:45:05.465Z,7.33
2023-04-12T21:47:32.521Z,8.67
2023-04-12T21:49:59.598Z,6.60
2023-04-12T21:52:26.781Z,7.50
2023-04-12T21:54:54.785Z,7.27
2023-04-12T21:57:21.904Z,6.83
2023-04-12T21:59:48.808Z,6.23
2023-04-12T22:02:16.133Z,6.43
2023-04-12T22:04:43.910Z,5.97
2023-04-12T22:07:12.920Z,6.87
2023-04-12T22:09:41.377Z,6.77
2023-04-12T22:12:11.967Z,6.10
2023-04-12T22:14:46.556Z,7.33
2023-04-12T22:17:14.908Z,6.53
2023-04-12T22:19:42.218Z,6.23
2023-04-12T22:22:10.768Z,5.53
2023-04-12T22:24:38.780Z,6.10
2023-04-12T22:27:06.949Z,5.70
2023-04-12T22:29:35.166Z,5.57
2023-04-12T22:32:02.476Z,5.77
2023-04-12T22:34:29.474Z,6.03
2023-04-12T22:36:58.976Z,5.27
2023-04-12T22:39:26.646Z,5.87
2023-04-12T22:41:53.591Z,5.27
2023-04-12T22:44:22.050Z,6.40
2023-04-12T22:46:49.905Z,5.90
2023-04-12T22:49:18.442Z,5.80
2023-04-12T22:51:45.446Z,5.70
2023-04-12T22:54:12.440Z,5.60
2023-04-12T22:56:41.845Z,5.83
2023-04-12T22:59:09.216Z,5.70
2023-04-12T23:01:36.224Z,5.27
2023-04-12T23:04:03.536Z,6.23
2023-04-12T23:06:31.791Z,6.80
2023-04-12T23:09:00.041Z,6.70
2023-04-12T23:11:30.145Z,6.13
2023-04-12T23:13:58.098Z,5.20
2023-04-12T23:16:25.646Z,5.63
2023-04-12T23:18:52.654Z,5.50
2023-04-12T23:21:19.506Z,5.80
2023-04-12T23:23:46.924Z,5.83
2023-04-12T23:26:13.795Z,5.60
2023-04-12T23:28:40.823Z,5.03
2023-04-12T23:31:08.275Z,5.00
2023-04-12T23:33:35.292Z,5.60
2023-04-12T23:36:03.322Z,4.77
2023-04-12T23:38:33.882Z,5.73
2023-04-12T23:41:03.813Z,5.10
2023-04-12T23:43:32.650Z,6.00
2023-04-12T23:45:59.963Z,5.37
2023-04-12T23:48:27.267Z,5.27
2023-04-12T23:50:54.345Z,5.13
2023-04-12T23:53:21.728Z,5.27
2023-04-12T23:55:52.141Z,4.70
2023-04-12T23:58:19.869Z,5.73
